createdAt,value
2022-11-13T00:01:33.732Z,71.77
2022-11-13T00:03:35.237Z,70.36
2022-11-13T00:05:38.254Z,73.15
2022-11-13T00:07:39.680Z,72.59
2022-11-13T00:09:41.139Z,72.45
2022-11-13T00:11:42.600Z,72.75
2022-11-13T00:13:44.387Z,73.94
2022-11-13T00:15:56.616Z,74.30
2022-11-13T00:18:00.710Z,74.94
2022-11-13T00:20:02.293Z,75.15
2022-11-13T00:22:05.147Z,75.00
2022-11-13T00:24:07.403Z,76.02
2022-11-13T00:26:11.588Z,75.67
2022-11-13T00:28:13.076Z,74.87
2022-11-13T00:30:19.049Z,76.35
2022-11-13T00:32:21.059Z,76.54
2022-11-13T00:36:43.946Z,76.83
2022-11-13T00:38:47.187Z,76.52
2022-11-13T00:40:48.663Z,77.17
2022-11-13T00:42:50.136Z,77.11
2022-11-13T00:44:51.587Z,77.41
2022-11-13T00:46:53.041Z,77.13
2022-11-13T00:48:54.538Z,77.26
2022-11-13T00:50:56.663Z,77.50
2022-11-13T00:52:57.942Z,78.48
2022-11-13T00:55:00.771Z,77.63
2022-11-13T00:57:02.245Z,77.79
2022-11-13T00:59:03.769Z,78.21
2022-11-13T01:01:06.922Z,78.67
2022-11-13T01:03:08.815Z,78.30
2022-11-13T01:05:10.290Z,78.77
2022-11-13T01:07:11.827Z,78.40
2022-11-13T01:09:13.401Z,79.14
2022-11-13T01:11:19.504Z,79.20
2022-11-13T01:13:20.957Z,79.49
2022-11-13T01:15:22.646Z,78.63
2022-11-13T01:17:24.129Z,78.92
2022-11-13T01:19:25.606Z,79.60
2022-11-13T01:21:28.357Z,79.05
2022-11-13T01:23:29.859Z,79.13
2022-11-13T01:25:31.729Z,79.38
2022-11-13T01:27:36.989Z,79.11
2022-11-13T01:29:38.792Z,79.79
2022-11-13T01:31:40.288Z,79.70
2022-11-13T01:33:41.811Z,79.88
2022-11-13T01:35:43.274Z,79.63
2022-11-13T01:37:44.732Z,79.93
2022-11-13T01:39:46.219Z,79.25
2022-11-13T01:41:47.667Z,79.68
2022-11-13T01:43:51.321Z,79.90
2022-11-13T01:46:16.082Z,79.69
2022-11-13T01:48:17.524Z,79.64
2022-11-13T01:50:19.231Z,79.90
2022-11-13T01:52:25.061Z,79.84
2022-11-13T01:54:29.624Z,79.74
2022-11-13T01:56:31.115Z,80.48
2022-11-13T01:58:32.780Z,80.29
2022-11-13T02:00:35.651Z,79.68
2022-11-13T02:02:37.503Z,79.93
2022-11-13T02:04:39.139Z,79.84
2022-11-13T02:06:43.749Z,79.73
2022-11-13T02:08:45.953Z,79.99
2022-11-13T02:10:47.859Z,79.37
2022-11-13T02:12:51.356Z,79.95
2022-11-13T02:14:54.532Z,79.85
2022-11-13T02:17:00.748Z,79.45
2022-11-13T02:19:06.056Z,79.90
2022-11-13T02:21:21.217Z,80.13
2022-11-13T02:23:30.852Z,80.66
2022-11-13T02:25:34.826Z,80.34
2022-11-13T02:27:41.351Z,80.85
2022-11-13T02:29:46.214Z,81.16
2022-11-13T02:31:47.852Z,82.00
2022-11-13T02:33:49.316Z,81.15
2022-11-13T02:35:50.914Z,81.43
2022-11-13T02:37:52.531Z,81.87
2022-11-13T02:39:53.974Z,81.94
2022-11-13T02:41:56.867Z,81.67
2022-11-13T02:43:58.494Z,81.76
2022-11-13T02:45:59.999Z,82.13
2022-11-13T02:48:01.487Z,82.07
2022-11-13T02:50:04.177Z,82.31
2022-11-13T02:52:05.647Z,82.13
2022-11-13T02:54:07.192Z,82.27
2022-11-13T02:56:08.919Z,82.12
2022-11-13T02:58:11.765Z,82.23
2022-11-13T03:00:14.444Z,82.67
2022-11-13T03:02:15.981Z,83.09
2022-11-13T03:04:18.568Z,82.45
2022-11-13T03:06:20.005Z,82.83
2022-11-13T03:08:21.528Z,82.34
2022-11-13T03:10:23.079Z,82.32
2022-11-13T03:12:24.673Z,82.30
2022-11-13T03:14:28.388Z,81.97
2022-11-13T03:16:29.854Z,82.34
2022-11-13T03:20:57.053Z,81.94
2022-11-13T03:22:58.494Z,82.09
2022-11-13T03:24:59.985Z,81.91
2022-11-13T03:27:01.466Z,82.52
2022-11-13T03:29:03.080Z,82.36
2022-11-13T03:31:06.113Z,82.43
2022-11-13T03:33:07.582Z,82.24
2022-11-13T03:35:09.087Z,82.01
2022-11-13T03:37:10.551Z,82.57
2022-11-13T03:39:12.033Z,82.25
2022-11-13T03:41:13.507Z,82.37
2022-11-13T03:43:15.248Z,82.00
2022-11-13T03:45:16.817Z,82.53
2022-11-13T03:47:19.672Z,82.09
2022-11-13T03:49:21.124Z,82.18
2022-11-13T03:51:22.786Z,82.42
2022-11-13T03:53:24.350Z,82.34
2022-11-13T03:55:25.812Z,83.01
2022-11-13T03:57:27.296Z,82.38
2022-11-13T03:59:28.745Z,82.32
2022-11-13T04:01:30.275Z,83.05
2022-11-13T04:03:33.129Z,83.05
2022-11-13T04:05:34.615Z,82.38
2022-11-13T04:07:36.101Z,82.37
2022-11-13T04:09:37.619Z,82.47
2022-11-13T04:11:39.072Z,82.35
2022-11-13T04:13:40.529Z,82.50
2022-11-13T04:15:42.027Z,82.66
2022-11-13T04:17:43.615Z,82.26
2022-11-13T04:19:46.457Z,82.85
2022-11-13T04:21:47.966Z,82.68
2022-11-13T04:23:49.431Z,82.98
2022-11-13T04:25:50.873Z,82.65
2022-11-13T04:27:53.092Z,83.18
2022-11-13T04:29:54.557Z,82.22
2022-11-13T04:31:55.997Z,82.51
2022-11-13T04:33:57.463Z,82.38
2022-11-13T04:36:01.027Z,83.07
2022-11-13T04:38:02.492Z,82.82
2022-11-13T04:40:05.036Z,82.63
2022-11-13T04:42:06.507Z,82.53
2022-11-13T04:44:07.939Z,82.86
2022-11-13T04:46:09.390Z,83.55
2022-11-13T04:48:10.854Z,82.98
2022-11-13T04:50:13.492Z,83.16
2022-11-13T04:52:16.353Z,83.23
2022-11-13T04:54:17.881Z,82.93
2022-11-13T04:56:19.340Z,83.76
2022-11-13T04:58:20.836Z,83.16
2022-11-13T05:00:22.685Z,82.96
2022-11-13T05:02:24.263Z,83.55
2022-11-13T05:04:25.735Z,83.25
2022-11-13T05:06:27.229Z,83.12
2022-11-13T05:08:30.409Z,83.31
2022-11-13T05:10:32.047Z,83.76
2022-11-13T05:12:33.504Z,82.87
2022-11-13T05:14:35.359Z,83.60
2022-11-13T05:16:36.834Z,84.28
2022-11-13T05:18:39.233Z,84.48
2022-11-13T05:20:40.798Z,83.91
2022-11-13T05:22:42.292Z,83.88
2022-11-13T05:24:45.083Z,83.43
2022-11-13T05:26:46.621Z,84.11
2022-11-13T05:28:48.092Z,83.77
2022-11-13T05:30:49.591Z,83.88
2022-11-13T05:32:52.125Z,84.33
2022-11-13T05:34:53.604Z,84.49
2022-11-13T05:36:55.052Z,84.21
2022-11-13T05:38:56.504Z,84.94
2022-11-13T05:41:03.637Z,84.79
2022-11-13T05:43:05.126Z,84.87
2022-11-13T05:45:07.337Z,84.29
2022-11-13T05:47:08.771Z,84.89
2022-11-13T05:49:10.312Z,85.01
2022-11-13T05:51:13.663Z,84.47
2022-11-13T05:53:15.099Z,84.93
2022-11-13T05:55:22.216Z,84.38
2022-11-13T05:57:26.145Z,85.04
2022-11-13T05:59:27.587Z,85.19
2022-11-13T06:01:31.126Z,85.09
2022-11-13T06:03:32.731Z,85.32
2022-11-13T06:05:34.976Z,85.34
2022-11-13T06:07:36.408Z,86.00
2022-11-13T06:09:37.903Z,86.45
2022-11-13T06:11:39.488Z,86.36
2022-11-13T06:13:42.380Z,85.64
2022-11-13T06:15:43.915Z,85.66
2022-11-13T06:17:45.671Z,85.88
2022-11-13T06:19:47.164Z,85.46
2022-11-13T06:21:48.604Z,85.56
2022-11-13T06:23:50.134Z,85.31
2022-11-13T06:25:51.636Z,85.86
2022-11-13T06:27:53.519Z,85.00
2022-11-13T06:29:56.596Z,85.34
2022-11-13T06:31:58.087Z,85.53
2022-11-13T06:34:00.082Z,85.54
2022-11-13T06:36:02.730Z,85.34
2022-11-13T06:38:04.198Z,85.77
2022-11-13T06:40:10.153Z,85.68
2022-11-13T06:42:11.625Z,85.56
2022-11-13T06:44:13.062Z,85.14
2022-11-13T06:46:20.640Z,85.61
2022-11-13T06:48:22.606Z,85.45
2022-11-13T06:50:24.125Z,85.23
2022-11-13T06:52:25.691Z,85.26
2022-11-13T06:54:27.135Z,85.03
2022-11-13T06:56:28.611Z,84.69
2022-11-13T06:58:30.439Z,84.48
2022-11-13T07:00:36.383Z,84.86
2022-11-13T07:04:02.850Z,79.68
2022-11-13T07:06:06.561Z,80.11
2022-11-13T07:08:08.037Z,80.89
2022-11-13T07:10:10.072Z,81.86
2022-11-13T07:12:11.533Z,81.83
2022-11-13T07:14:13.180Z,82.23
2022-11-13T07:16:17.973Z,82.31
2022-11-13T07:18:23.865Z,82.14
2022-11-13T07:20:27.255Z,81.98
2022-11-13T07:22:28.951Z,82.83
2022-11-13T07:24:30.411Z,82.73
2022-11-13T07:26:32.615Z,82.25
2022-11-13T07:28:34.061Z,82.55
2022-11-13T07:30:35.556Z,82.72
2022-11-13T07:32:37.012Z,82.05
2022-11-13T07:34:38.561Z,82.15
2022-11-13T07:36:41.381Z,81.14
2022-11-13T07:38:42.858Z,81.35
2022-11-13T07:40:44.350Z,81.25
2022-11-13T07:42:45.784Z,81.83
2022-11-13T07:44:54.609Z,81.02
2022-11-13T07:46:56.940Z,81.69
2022-11-13T07:48:58.401Z,82.05
2022-11-13T07:51:00.916Z,80.96
2022-11-13T07:53:06.095Z,81.36
2022-11-13T07:55:08.324Z,81.12
2022-11-13T07:57:09.978Z,82.33
2022-11-13T07:59:11.420Z,82.97
2022-11-13T08:01:12.891Z,82.43
2022-11-13T08:03:16.369Z,81.76
2022-11-13T08:05:18.096Z,81.60
2022-11-13T08:07:19.598Z,80.61
2022-11-13T08:09:22.576Z,80.34
2022-11-13T08:11:24.080Z,80.17
2022-11-13T08:13:25.564Z,79.54
2022-11-13T08:15:27.586Z,79.91
2022-11-13T08:17:29.018Z,79.33
2022-11-13T08:19:30.530Z,79.23
2022-11-13T08:21:32.012Z,79.90
2022-11-13T08:23:33.463Z,80.01
2022-11-13T08:25:36.425Z,78.86
2022-11-13T08:27:37.889Z,78.64
2022-11-13T08:29:39.361Z,78.00
2022-11-13T08:31:40.839Z,77.87
2022-11-13T08:33:42.998Z,77.22
2022-11-13T08:35:52.404Z,76.27
2022-11-13T08:37:53.898Z,76.81
2022-11-13T08:39:55.392Z,75.46
2022-11-13T08:41:58.204Z,75.21
2022-11-13T08:43:59.669Z,74.43
2022-11-13T08:46:01.202Z,73.58
2022-11-13T08:48:04.316Z,74.86
2022-11-13T08:50:06.894Z,72.47
2022-11-13T08:52:08.327Z,72.12
2022-11-13T08:54:09.800Z,70.90
2022-11-13T08:56:11.387Z,71.06
2022-11-13T08:58:14.356Z,70.69
2022-11-13T09:02:42.510Z,68.92
2022-11-13T09:04:44.155Z,68.90
2022-11-13T09:06:45.708Z,68.23
2022-11-13T09:08:47.230Z,68.26
2022-11-13T09:10:48.727Z,68.20
2022-11-13T09:12:55.989Z,68.63
2022-11-13T09:14:58.771Z,68.00
2022-11-13T09:17:00.223Z,68.81
2022-11-13T09:19:01.688Z,67.99
2022-11-13T09:21:03.640Z,67.73
2022-11-13T09:23:06.735Z,67.58
2022-11-13T09:25:09.303Z,66.59
2022-11-13T09:27:10.809Z,66.64
2022-11-13T09:29:12.313Z,64.96
2022-11-13T09:31:15.476Z,64.98
2022-11-13T09:33:16.953Z,62.00
2022-11-13T09:35:18.417Z,61.65
2022-11-13T09:37:19.914Z,60.89
2022-11-13T09:39:21.596Z,60.16
2022-11-13T09:41:25.978Z,60.09
2022-11-13T09:43:33.437Z,59.66
2022-11-13T09:45:35.009Z,59.82
2022-11-13T09:47:42.175Z,59.42
2022-11-13T09:49:46.763Z,61.00
2022-11-13T09:51:52.773Z,61.69
2022-11-13T09:53:54.676Z,59.24
2022-11-13T09:56:04.766Z,58.42
2022-11-13T09:58:15.188Z,58.60
2022-11-13T10:00:18.733Z,59.87
2022-11-13T10:02:25.646Z,59.99
2022-11-13T10:04:50.611Z,59.59
2022-11-13T10:09:38.862Z,57.12
2022-11-13T10:11:46.369Z,57.19
2022-11-13T10:13:51.767Z,58.39
2022-11-13T10:16:08.959Z,57.24
2022-11-13T10:18:16.834Z,56.26
2022-11-13T10:20:22.228Z,55.13
2022-11-13T10:22:33.431Z,54.87
2022-11-13T10:24:41.025Z,54.96
2022-11-13T10:26:42.472Z,57.29
2022-11-13T10:28:50.418Z,55.42
2022-11-13T10:30:52.514Z,54.68
2022-11-13T10:32:53.998Z,54.07
2022-11-13T10:35:00.673Z,54.66
2022-11-13T10:37:20.332Z,53.82
2022-11-13T10:39:21.817Z,53.90
2022-11-13T10:41:23.299Z,54.28
2022-11-13T10:43:26.645Z,53.52
2022-11-13T10:45:29.023Z,53.53
2022-11-13T10:49:55.527Z,52.58
2022-11-13T10:51:58.774Z,52.48
2022-11-13T10:54:20.545Z,53.63
2022-11-13T10:56:27.899Z,52.83
2022-11-13T10:58:29.716Z,53.27
2022-11-13T11:00:33.778Z,53.30
2022-11-13T11:02:35.700Z,54.23
2022-11-13T11:04:37.620Z,53.34
2022-11-13T11:09:14.263Z,53.04
2022-11-13T11:11:18.056Z,52.81
2022-11-13T11:13:22.628Z,49.76
2022-11-13T11:15:28.981Z,48.26
2022-11-13T11:17:36.833Z,48.64
2022-11-13T11:19:41.544Z,47.75
2022-11-13T11:21:45.370Z,45.25
2022-11-13T11:23:56.179Z,46.83
2022-11-13T11:26:02.015Z,43.53
2022-11-13T11:28:09.457Z,43.58
2022-11-13T11:30:18.527Z,44.60
2022-11-13T11:32:27.328Z,43.46
2022-11-13T11:34:34.093Z,43.56
2022-11-13T11:36:46.233Z,42.63
2022-11-13T11:38:53.895Z,43.55
2022-11-13T11:41:05.537Z,43.55
2022-11-13T11:43:16.724Z,43.79
2022-11-13T11:45:25.076Z,42.55
2022-11-13T11:47:27.921Z,43.03
2022-11-13T11:49:29.400Z,43.41
2022-11-13T11:51:31.341Z,42.99
2022-11-13T11:53:44.707Z,42.84
2022-11-13T11:55:51.875Z,43.16
2022-11-13T11:57:59.471Z,44.05
2022-11-13T12:00:05.043Z,42.30
2022-11-13T12:02:43.536Z,42.85
2022-11-13T12:05:00.136Z,41.85
2022-11-13T12:07:14.147Z,41.32
2022-11-13T12:09:23.440Z,42.02
2022-11-13T12:11:29.220Z,42.35
2022-11-13T12:13:36.748Z,41.78
2022-11-13T12:15:46.000Z,41.61
2022-11-13T12:17:57.952Z,40.75
2022-11-13T12:20:18.583Z,42.33
2022-11-13T12:22:30.826Z,42.35
2022-11-13T12:24:50.812Z,42.75
2022-11-13T12:27:02.648Z,42.32
2022-11-13T12:29:16.740Z,43.79
2022-11-13T12:31:31.713Z,42.81
2022-11-13T12:33:43.432Z,43.96
2022-11-13T12:35:47.942Z,43.23
2022-11-13T12:37:55.027Z,45.05
2022-11-13T12:39:58.002Z,45.27
2022-11-13T12:42:09.117Z,46.38
2022-11-13T12:44:22.592Z,47.10
2022-11-13T12:46:34.200Z,47.40
2022-11-13T12:48:37.694Z,47.72
2022-11-13T12:50:39.183Z,47.27
2022-11-13T12:52:40.644Z,47.22
2022-11-13T12:54:42.160Z,46.08
2022-11-13T12:56:43.596Z,47.02
2022-11-13T12:59:28.427Z,46.49
2022-11-13T13:01:21.934Z,49.23
2022-11-13T13:03:42.363Z,48.21
2022-11-13T13:06:05.882Z,48.82
2022-11-13T13:09:27.397Z,57.12
2022-11-13T13:13:12.704Z,59.07
2022-11-13T13:15:29.172Z,59.53
2022-11-13T13:17:30.684Z,59.47
2022-11-13T13:19:33.404Z,59.71
2022-11-13T13:21:43.237Z,59.72
2022-11-13T13:23:47.397Z,59.85
2022-11-13T13:25:48.885Z,59.50
2022-11-13T13:27:56.871Z,59.67
2022-11-13T13:30:00.811Z,60.06
2022-11-13T13:33:28.018Z,59.99
2022-11-13T13:35:38.243Z,59.95
2022-11-13T13:37:50.780Z,59.78
2022-11-13T13:40:03.725Z,59.96
2022-11-13T13:42:19.723Z,59.94
2022-11-13T13:44:41.685Z,59.73
2022-11-13T13:46:44.345Z,59.64
2022-11-13T13:48:51.308Z,59.81
2022-11-13T13:50:54.678Z,59.45
2022-11-13T13:52:59.005Z,59.52
2022-11-13T13:55:03.647Z,59.30
2022-11-13T13:57:11.725Z,59.27
2022-11-13T13:59:17.433Z,59.06
2022-11-13T14:01:28.511Z,59.03
2022-11-13T14:03:31.371Z,59.06
2022-11-13T14:05:37.312Z,59.00
2022-11-13T14:07:47.243Z,58.95
2022-11-13T14:09:50.024Z,58.81
2022-11-13T14:11:58.653Z,58.87
2022-11-13T14:14:08.653Z,59.06
2022-11-13T14:16:11.276Z,58.87
2022-11-13T14:18:15.486Z,58.92
2022-11-13T14:20:18.619Z,58.92
2022-11-13T14:22:23.168Z,59.06
2022-11-13T14:24:30.105Z,59.11
2022-11-13T14:26:32.823Z,59.29
2022-11-13T14:28:46.252Z,59.27
2022-11-13T14:30:55.606Z,59.01
2022-11-13T14:33:00.498Z,59.24
2022-11-13T14:35:06.050Z,59.19
2022-11-13T14:37:31.289Z,59.36
2022-11-13T14:39:35.474Z,59.29
2022-11-13T14:41:41.757Z,59.34
2022-11-13T14:43:50.667Z,59.26
2022-11-13T14:45:56.319Z,59.37
2022-11-13T14:48:01.124Z,59.35
2022-11-13T14:50:20.079Z,59.42
2022-11-13T14:52:25.232Z,59.60
2022-11-13T14:55:00.309Z,59.58
2022-11-13T14:57:09.017Z,59.58
2022-11-13T14:59:19.580Z,59.76
2022-11-13T15:01:24.905Z,59.80
2022-11-13T15:03:28.465Z,59.56
2022-11-13T15:05:31.740Z,59.70
2022-11-13T15:07:35.604Z,59.54
2022-11-13T15:09:39.643Z,59.68
2022-11-13T15:11:42.228Z,59.93
2022-11-13T15:13:45.763Z,59.89
2022-11-13T15:15:48.401Z,59.59
2022-11-13T15:17:52.534Z,59.60
2022-11-13T15:19:55.911Z,59.62
2022-11-13T15:22:25.939Z,59.83
2022-11-13T15:24:21.380Z,59.69
2022-11-13T15:26:25.475Z,59.78
2022-11-13T15:28:28.059Z,59.72
2022-11-13T15:30:30.720Z,59.65
2022-11-13T15:32:33.341Z,59.62
2022-11-13T15:34:35.903Z,59.74
2022-11-13T15:36:38.561Z,59.59
2022-11-13T15:38:41.418Z,59.74
2022-11-13T15:40:44.049Z,59.50
2022-11-13T15:42:48.225Z,59.33
2022-11-13T15:44:50.868Z,59.59
2022-11-13T15:46:53.459Z,59.38
2022-11-13T15:48:56.355Z,59.46
2022-11-13T15:50:59.241Z,59.46
2022-11-13T15:53:05.469Z,59.50
2022-11-13T15:55:21.220Z,59.29
2022-11-13T15:57:25.724Z,59.51
2022-11-13T15:59:29.703Z,59.26
2022-11-13T16:01:32.335Z,59.54
2022-11-13T16:03:40.346Z,59.32
2022-11-13T16:05:42.959Z,59.61
2022-11-13T16:07:45.557Z,59.34
2022-11-13T16:09:48.487Z,59.58
2022-11-13T16:11:51.080Z,59.42
2022-11-13T16:13:53.682Z,59.56
2022-11-13T16:15:58.171Z,59.51
2022-11-13T16:18:02.307Z,59.58
2022-11-13T16:22:33.776Z,59.60
2022-11-13T16:37:24.363Z,57.18
2022-11-13T16:39:26.982Z,58.31
2022-11-13T16:42:38.228Z,59.95
2022-11-13T16:44:41.049Z,60.73
2022-11-13T16:46:47.753Z,60.73
2022-11-13T16:48:50.373Z,60.02
2022-11-13T17:08:45.206Z,58.23
2022-11-13T17:11:12.972Z,59.29
2022-11-13T17:13:39.257Z,59.25
2022-11-13T17:16:05.676Z,59.59
2022-11-13T17:18:32.088Z,59.45
2022-11-13T17:20:58.339Z,59.51
2022-11-13T17:23:24.619Z,60.08
2022-11-13T17:25:51.128Z,60.51
2022-11-13T17:29:40.214Z,60.03
2022-11-13T18:09:18.612Z,45.56
2022-11-13T18:11:25.778Z,48.90
2022-11-13T18:13:27.721Z,51.77
2022-11-13T18:15:29.385Z,54.76
2022-11-13T18:17:30.773Z,58.06
2022-11-13T18:19:32.141Z,58.86
2022-11-13T18:21:35.392Z,60.93
2022-11-13T18:23:36.967Z,61.90
2022-11-13T18:25:39.825Z,62.99
2022-11-13T18:27:41.945Z,64.13
2022-11-13T18:29:43.280Z,65.13
2022-11-13T18:31:45.015Z,65.49
2022-11-13T18:33:47.629Z,65.43
2022-11-13T18:35:48.969Z,67.65
2022-11-13T18:37:52.216Z,67.88
2022-11-13T18:39:53.551Z,68.30
2022-11-13T18:41:59.057Z,68.82
2022-11-13T18:44:00.507Z,69.47
2022-11-13T18:46:06.847Z,69.92
2022-11-13T18:48:08.201Z,70.69
2022-11-13T18:50:09.656Z,70.87
2022-11-13T18:52:11.220Z,71.46
2022-11-13T18:54:12.836Z,70.95
2022-11-13T18:56:28.599Z,71.83
2022-11-13T18:58:30.225Z,71.61
2022-11-13T19:00:31.574Z,71.70
2022-11-13T19:02:32.953Z,72.07
2022-11-13T19:04:35.138Z,72.89
2022-11-13T19:06:40.940Z,72.19
2022-11-13T19:08:43.434Z,72.64
2022-11-13T19:10:44.780Z,73.85
2022-11-13T19:12:46.247Z,74.21
2022-11-13T19:14:47.661Z,74.67
2022-11-13T19:16:49.006Z,74.71
2022-11-13T19:18:53.637Z,75.55
2022-11-13T19:20:54.992Z,74.46
2022-11-13T19:22:56.421Z,75.71
2022-11-13T19:24:57.847Z,76.26
2022-11-13T19:26:59.224Z,76.90
2022-11-13T19:29:00.647Z,76.38
2022-11-13T19:31:07.070Z,76.17
2022-11-13T19:33:08.418Z,76.41
2022-11-13T19:35:09.804Z,75.03
2022-11-13T19:37:14.905Z,76.21
2022-11-13T19:39:20.114Z,75.61
2022-11-13T19:41:21.957Z,75.51
2022-11-13T19:43:23.314Z,75.13
2022-11-13T19:45:24.648Z,74.46
2022-11-13T19:47:26.029Z,75.02
2022-11-13T19:49:27.400Z,75.09
2022-11-13T19:51:28.807Z,74.68
2022-11-13T19:53:31.392Z,76.07
2022-11-13T19:55:34.684Z,75.36
2022-11-13T19:57:36.084Z,75.58
2022-11-13T19:59:39.362Z,75.88
2022-11-13T20:01:42.058Z,76.78
2022-11-13T20:03:43.610Z,76.66
2022-11-13T20:05:45.121Z,76.48
2022-11-13T20:07:47.161Z,76.49
2022-11-13T20:09:48.539Z,77.24
2022-11-13T20:11:49.993Z,77.68
2022-11-13T20:13:51.426Z,77.44
2022-11-13T20:15:54.573Z,77.88
2022-11-13T20:17:55.990Z,78.16
2022-11-13T20:19:57.563Z,78.72
2022-11-13T20:21:59.793Z,78.73
2022-11-13T20:24:01.297Z,78.86
2022-11-13T20:26:05.592Z,80.00
2022-11-13T20:28:06.951Z,80.04
2022-11-13T20:30:09.048Z,79.95
2022-11-13T20:32:10.508Z,80.15
2022-11-13T20:34:11.928Z,80.19
2022-11-13T20:36:14.265Z,80.17
2022-11-13T20:38:16.044Z,80.54
2022-11-13T20:40:17.739Z,80.70
2022-11-13T20:42:19.090Z,80.79
2022-11-13T20:44:20.477Z,80.47
2022-11-13T20:46:22.388Z,81.47
2022-11-13T20:48:24.689Z,80.94
2022-11-13T20:50:26.676Z,80.96
2022-11-13T20:52:28.023Z,81.10
2022-11-13T20:54:29.346Z,81.43
2022-11-13T20:56:30.697Z,81.31
2022-11-13T20:58:32.326Z,81.49
2022-11-13T21:00:33.915Z,81.60
2022-11-13T21:02:35.278Z,81.75
2022-11-13T21:04:36.632Z,81.16
2022-11-13T21:06:38.126Z,80.86
2022-11-13T21:08:39.942Z,80.50
2022-11-13T21:10:41.297Z,80.74
2022-11-13T21:12:42.646Z,81.11
2022-11-13T21:14:44.242Z,80.85
2022-11-13T21:16:45.585Z,80.82
2022-11-13T21:18:47.153Z,80.97
2022-11-13T21:20:48.730Z,80.35
2022-11-13T21:22:50.105Z,80.25
2022-11-13T21:24:51.477Z,79.83
2022-11-13T21:26:52.955Z,79.10
2022-11-13T21:28:56.560Z,78.93
2022-11-13T21:31:02.962Z,78.75
2022-11-13T21:33:04.342Z,78.72
2022-11-13T21:35:05.842Z,78.97
2022-11-13T21:37:08.065Z,79.27
2022-11-13T21:39:09.477Z,79.26
2022-11-13T21:41:22.277Z,79.72
2022-11-13T21:43:24.995Z,79.14
2022-11-13T21:45:26.378Z,79.53
2022-11-13T21:47:27.738Z,79.85
2022-11-13T21:49:29.215Z,80.09
2022-11-13T21:51:32.260Z,80.17
2022-11-13T21:53:33.714Z,80.53
2022-11-13T21:55:35.066Z,80.90
2022-11-13T21:57:36.504Z,80.78
2022-11-13T21:59:37.864Z,80.70
2022-11-13T22:01:39.261Z,80.24
2022-11-13T22:03:41.472Z,80.56
2022-11-13T22:05:42.866Z,80.52
2022-11-13T22:07:44.192Z,81.04
2022-11-13T22:09:45.587Z,80.72
2022-11-13T22:11:47.058Z,81.26
2022-11-13T22:13:48.526Z,81.59
2022-11-13T22:15:50.507Z,81.69
2022-11-13T22:17:51.879Z,81.09
2022-11-13T22:19:53.269Z,80.49
2022-11-13T22:21:54.640Z,80.47
2022-11-13T22:23:56.981Z,80.58
2022-11-13T22:26:05.701Z,80.39
2022-11-13T22:28:07.107Z,79.48
2022-11-13T22:30:08.924Z,80.29
2022-11-13T22:32:10.297Z,79.40
2022-11-13T22:34:11.692Z,78.51
2022-11-13T22:36:15.668Z,78.76
2022-11-13T22:38:17.083Z,79.28
2022-11-13T22:40:18.505Z,79.16
2022-11-13T22:42:19.931Z,78.65
2022-11-13T22:44:21.399Z,78.59
2022-11-13T22:46:25.260Z,78.46
2022-11-13T22:48:26.893Z,78.46
2022-11-13T22:50:28.454Z,77.77
2022-11-13T22:52:29.847Z,77.29
2022-11-13T22:54:31.283Z,76.46
2022-11-13T22:56:34.200Z,76.63
2022-11-13T22:58:35.719Z,76.48
2022-11-13T23:00:37.142Z,76.98
2022-11-13T23:02:40.788Z,76.59
2022-11-13T23:04:45.839Z,76.73
2022-11-13T23:06:47.296Z,76.78
2022-11-13T23:08:49.432Z,77.05
2022-11-13T23:10:54.520Z,76.44
2022-11-13T23:12:55.877Z,76.23
2022-11-13T23:14:57.232Z,76.20
2022-11-13T23:16:58.629Z,75.71
2022-11-13T23:19:01.477Z,74.70
2022-11-13T23:21:02.840Z,74.25
2022-11-13T23:23:04.215Z,74.26
2022-11-13T23:25:05.779Z,73.62
2022-11-13T23:27:07.112Z,74.18
2022-11-13T23:29:08.673Z,73.78
2022-11-13T23:31:10.546Z,73.94
2022-11-13T23:33:11.871Z,73.94
2022-11-13T23:35:13.226Z,72.58
2022-11-13T23:37:14.615Z,73.84
2022-11-13T23:39:15.997Z,74.04
2022-11-13T23:41:17.368Z,74.20
2022-11-13T23:43:18.723Z,73.57
2022-11-13T23:45:20.062Z,73.73
2022-11-13T23:47:21.437Z,73.92
2022-11-13T23:49:22.829Z,74.36
2022-11-13T23:51:24.183Z,75.42
2022-11-13T23:53:25.549Z,75.82
2022-11-13T23:55:26.944Z,76.20
2022-11-13T23:57:28.512Z,76.44
2022-11-13T23:59:29.876Z,76.98
